Time;durP1;ratioP1;P1;durP2;ratioP2;P2;SDS_P1;SDS_P2;PMS_P1;PMS_P2;Temp;Humidity;BMP_temperature;BMP_pressure;BME280_temperature;BME280_humidity;BME280_pressure;Samples;Min_cycle;Max_cycle;Signal;HPM_P1;HPM_P2
2022/04/16 00:01:24;;;;;;;30.23;19.80;;;;;;;8.53;69.52;99355.63;4938340;29;20054;-79
2022/04/16 00:03:51;;;;;;;32.75;20.85;;;;;;;8.76;69.79;99384.00;4920799;29;20467;-79
2022/04/16 00:06:16;;;;;;;25.48;17.67;;;;;;;8.69;69.63;99366.75;4918104;29;20117;-79
2022/04/16 00:08:45;;;;;;;27.77;18.42;;;;;;;8.80;69.59;99379.63;4901637;29;20039;-81
2022/04/16 00:11:11;;;;;;;36.72;22.10;;;;;;;8.59;69.96;99346.09;4918081;29;20095;-81
2022/04/16 00:13:37;;;;;;;40.28;25.10;;;;;;;8.87;69.84;99395.13;4934752;29;20039;-80
2022/04/16 00:16:03;;;;;;;38.90;23.83;;;;;;;8.77;70.02;99370.16;4935212;29;20047;-79
2022/04/16 00:18:29;;;;;;;40.80;24.85;;;;;;;8.58;69.85;99343.50;4908005;29;20039;-77
2022/04/16 00:20:56;;;;;;;31.48;20.63;;;;;;;8.84;69.86;99387.38;4924378;29;20051;-78
2022/04/16 00:23:22;;;;;;;27.20;19.05;;;;;;;8.90;70.02;99391.66;4910307;29;20067;-79
2022/04/16 00:25:50;;;;;;;29.52;20.35;;;;;;;8.96;70.02;99394.19;4909310;29;20054;-79
2022/04/16 00:28:16;;;;;;;28.77;21.17;;;;;;;8.93;69.66;99380.41;4940724;29;20051;-80
2022/04/16 00:30:42;;;;;;;28.73;20.60;;;;;;;8.95;69.92;99368.28;4920276;29;20071;-80
2022/04/16 00:33:12;;;;;;;26.80;19.23;;;;;;;9.14;70.10;99389.72;4934017;29;20036;-76
2022/04/16 00:35:42;;;;;;;24.10;17.55;;;;;;;9.04;70.09;99373.38;4916408;29;20043;-80
2022/04/16 00:38:10;;;;;;;23.58;15.07;;;;;;;9.21;69.89;99390.53;4918182;29;20043;-79
2022/04/16 00:40:36;;;;;;;21.88;15.13;;;;;;;8.98;70.11;99363.91;4920006;29;20090;-78
2022/04/16 00:43:02;;;;;;;22.80;16.38;;;;;;;9.17;70.26;99387.06;4932898;29;20167;-81
2022/04/16 00:45:29;;;;;;;22.50;15.85;;;;;;;9.06;70.00;99360.38;4932423;29;20055;-80
2022/04/16 00:47:57;;;;;;;24.55;17.20;;;;;;;9.17;70.05;99374.97;4932577;29;20048;-79
2022/04/16 00:50:23;;;;;;;25.45;17.23;;;;;;;9.28;70.10;99385.25;4934006;29;20066;-81
2022/04/16 00:52:49;;;;;;;24.40;17.98;;;;;;;9.31;70.24;99385.22;4923018;29;20511;-80
2022/04/16 00:55:19;;;;;;;23.35;15.85;;;;;;;9.21;70.13;99364.56;4919520;29;20654;-82
2022/04/16 00:58:06;;;;;;;26.00;17.25;;;;;;;9.14;70.50;99348.19;4893616;29;20415;-78
2022/04/16 01:00:32;;;;;;;27.20;16.45;;;;;;;9.19;70.20;99357.66;4904921;29;20039;-81
2022/04/16 01:03:21;;;;;;;31.58;18.95;;;;;;;9.38;70.26;99372.19;4907053;29;20539;-81
2022/04/16 01:07:20;;;;;;;;;;;;;;;;;;;;;
2022/04/16 01:11:25;;;;;;;26.50;17.77;;;;;;;8.55;70.24;99263.13;4878489;29;20645;-82
2022/04/16 01:13:52;;;;;;;24.63;15.52;;;;;;;9.33;69.96;99375.69;4863775;29;20057;-80
2022/04/16 01:16:18;;;;;;;21.38;15.50;;;;;;;9.21;70.14;99368.00;4911452;29;20083;-81
2022/04/16 01:18:49;;;;;;;20.70;15.10;;;;;;;9.30;70.21;99380.91;4903209;29;20058;-80
2022/04/16 01:21:15;;;;;;;22.40;16.35;;;;;;;9.13;69.76;99359.47;4935995;29;20468;-80
2022/04/16 01:23:41;;;;;;;22.38;15.95;;;;;;;9.22;69.46;99385.31;4935957;29;20051;-80
2022/04/16 01:26:10;;;;;;;21.60;15.23;;;;;;;9.20;70.08;99376.66;4919265;29;20055;-81
2022/04/16 01:28:36;;;;;;;22.10;16.17;;;;;;;9.27;69.98;99383.53;4919480;29;20046;-83
2022/04/16 01:31:02;;;;;;;21.98;15.77;;;;;;;9.21;70.13;99381.00;4919727;28;20039;-82
2022/04/16 01:33:30;;;;;;;22.88;16.42;;;;;;;9.18;69.96;99374.09;4926279;29;20058;-77
2022/04/16 01:35:56;;;;;;;23.80;15.98;;;;;;;9.21;70.00;99381.00;4948280;29;20127;-78
2022/04/16 01:38:25;;;;;;;20.63;16.02;;;;;;;9.15;70.23;99370.69;4936327;29;20053;-81
2022/04/16 01:40:58;;;;;;;23.13;15.63;;;;;;;9.26;70.00;99381.81;4902391;29;20491;-80
2022/04/16 01:43:25;;;;;;;22.85;15.70;;;;;;;9.22;69.76;99374.91;4935458;29;20051;-79
2022/04/16 01:45:51;;;;;;;22.75;15.30;;;;;;;9.22;69.79;99393.09;4935128;29;20039;-79
2022/04/16 01:48:18;;;;;;;19.98;14.20;;;;;;;9.08;69.85;99366.41;4935227;29;20157;-78
2022/04/16 01:50:44;;;;;;;18.13;12.60;;;;;;;8.95;69.43;99379.50;4918448;29;20083;-80
2022/04/16 01:53:10;;;;;;;17.50;12.18;;;;;;;8.81;69.72;99368.38;4918112;29;20352;-77
2022/04/16 01:55:36;;;;;;;15.95;11.63;;;;;;;8.82;69.48;99385.69;4901998;29;20039;-79
2022/04/16 01:58:04;;;;;;;14.80;11.50;;;;;;;8.64;69.36;99384.97;4917943;29;20039;-79
2022/04/16 02:00:29;;;;;;;16.60;11.95;;;;;;;8.60;70.01;99385.84;4901923;29;20043;-79
2022/04/16 02:02:57;;;;;;;15.02;10.55;;;;;;;8.40;70.23;99344.47;4934558;29;20043;-81
2022/04/16 02:05:23;;;;;;;14.52;10.88;;;;;;;8.46;69.29;99365.16;4901992;29;20067;-79
2022/04/16 02:07:50;;;;;;;14.45;11.32;;;;;;;8.50;69.61;99372.09;4934821;29;20050;-81
2022/04/16 02:10:17;;;;;;;16.48;12.07;;;;;;;8.49;69.49;99372.13;4917974;29;20594;-78
2022/04/16 02:12:44;;;;;;;14.55;10.85;;;;;;;8.51;69.93;99378.13;4917155;29;20079;-80
2022/04/16 02:15:11;;;;;;;15.45;11.68;;;;;;;8.54;69.49;99388.47;4901961;29;20059;-77
2022/04/16 02:17:38;;;;;;;18.90;13.13;;;;;;;8.56;69.59;99390.22;4901681;29;20054;-80
2022/04/16 02:20:09;;;;;;;19.55;14.63;;;;;;;8.52;69.02;99385.91;4935033;29;20475;-79
2022/04/16 02:22:45;;;;;;;18.97;14.80;;;;;;;8.52;69.59;99393.69;4918050;29;20140;-80
2022/04/16 02:25:13;;;;;;;18.70;13.55;;;;;;;8.46;69.13;99385.91;4902081;29;20079;-79
2022/04/16 02:27:41;;;;;;;16.33;12.38;;;;;;;8.40;69.07;99389.41;4917450;29;20418;-84
2022/04/16 02:30:12;;;;;;;17.13;12.95;;;;;;;8.35;69.03;99392.91;4918600;29;20098;-78
2022/04/16 02:32:39;;;;;;;15.27;12.15;;;;;;;8.33;69.39;99392.91;4918048;29;20044;-81
2022/04/16 02:35:07;;;;;;;14.70;11.18;;;;;;;8.09;69.60;99362.81;4935189;29;20498;-78
2022/04/16 02:37:34;;;;;;;13.68;10.40;;;;;;;8.32;69.09;99409.31;4934540;29;20067;-79
2022/04/16 02:40:00;;;;;;;13.52;10.48;;;;;;;8.11;69.35;99377.47;4943924;29;20106;-78
2022/04/16 02:42:26;;;;;;;11.05;8.70;;;;;;;8.18;69.33;99395.59;4927134;29;20462;-77
2022/04/16 02:47:36;;;;;;;11.02;7.40;;;;;;;7.84;68.58;99381.91;4919076;29;20032;-79
2022/04/16 02:50:03;;;;;;;10.82;8.00;;;;;;;8.02;68.88;99421.59;4939282;29;20086;-80
2022/04/16 02:52:36;;;;;;;10.43;7.78;;;;;;;7.97;68.42;99424.19;4936255;29;20130;-79
2022/04/16 02:55:04;;;;;;;9.90;7.40;;;;;;;7.82;68.70;99404.41;4918396;29;20511;-79
2022/04/16 02:57:33;;;;;;;8.00;6.85;;;;;;;7.72;68.90;99387.16;4901816;29;20126;-80
2022/04/16 02:59:59;;;;;;;9.18;6.93;;;;;;;7.77;68.56;99415.63;4917685;29;20107;-82
2022/04/16 03:02:26;;;;;;;9.57;7.35;;;;;;;7.80;68.50;99428.56;4917310;29;20039;-76
2022/04/16 03:04:54;;;;;;;8.68;6.30;;;;;;;7.58;68.46;99404.50;4903225;29;20144;-81
2022/04/16 03:07:20;;;;;;;8.15;6.38;;;;;;;7.75;68.51;99436.38;4932947;29;20042;-82
2022/04/16 03:09:46;;;;;;;8.57;6.20;;;;;;;7.63;68.52;99433.78;4940656;29;20028;-80
2022/04/16 03:12:12;;;;;;;8.70;6.82;;;;;;;7.47;67.80;99425.22;4915487;29;20044;-81
2022/04/16 03:17:31;;;;;;;6.85;5.63;;;;;;;7.48;68.15;99434.72;4917447;29;20070;-80
2022/04/16 03:19:58;;;;;;;8.55;5.82;;;;;;;7.47;68.25;99428.66;4901524;29;20062;-81
2022/04/16 03:22:24;;;;;;;8.65;6.60;;;;;;;7.54;68.48;99451.09;4935081;29;20511;-80
2022/04/16 03:24:51;;;;;;;6.95;5.82;;;;;;;7.41;68.16;99431.25;4934609;29;20051;-80
2022/04/16 03:27:17;;;;;;;6.72;5.75;;;;;;;7.55;68.23;99457.13;4940301;29;20043;-77
2022/04/16 03:29:43;;;;;;;6.15;5.22;;;;;;;7.49;67.99;99460.59;4921819;29;20043;-79
2022/04/16 03:32:09;;;;;;;7.78;5.68;;;;;;;7.42;67.53;99465.78;4938087;29;20043;-79
2022/04/16 03:34:37;;;;;;;6.25;5.28;;;;;;;7.23;67.75;99451.13;4921216;29;20039;-80
2022/04/16 03:37:03;;;;;;;6.45;5.75;;;;;;;7.33;68.06;99464.06;4919676;29;20047;-80
2022/04/16 03:39:29;;;;;;;7.22;5.72;;;;;;;7.09;68.09;99419.25;4901576;29;20043;-81
2022/04/16 03:41:55;;;;;;;8.50;6.38;;;;;;;7.24;67.46;99452.84;4934328;29;20050;-82
2022/04/16 03:44:21;;;;;;;7.97;5.68;;;;;;;7.33;67.46;99467.50;4917386;29;20519;-83
2022/04/16 03:46:47;;;;;;;6.90;5.30;;;;;;;7.30;66.88;99475.28;4901455;29;20039;-82
2022/04/16 03:49:13;;;;;;;5.88;5.03;;;;;;;7.20;67.29;99471.84;4934391;29;20048;-83
2022/04/16 03:51:40;;;;;;;5.43;4.80;;;;;;;7.07;66.95;99472.72;4916207;29;20515;-83
2022/04/16 04:02:20;;;;;;;4.78;3.85;;;;;;;6.68;66.10;99457.16;4933664;29;20043;-77
2022/04/16 04:04:46;;;;;;;4.50;3.70;;;;;;;6.41;66.01;99438.13;4917646;29;20471;-79
2022/04/16 04:07:13;;;;;;;4.97;3.80;;;;;;;6.58;66.48;99482.13;4919989;29;20455;-77
2022/04/16 04:09:39;;;;;;;6.00;4.00;;;;;;;6.45;67.22;99480.38;4919145;29;20043;-78
2022/04/16 04:12:10;;;;;;;5.15;4.00;;;;;;;6.37;66.62;99487.25;4903740;29;20039;-80
2022/04/16 04:14:41;;;;;;;3.95;3.47;;;;;;;6.35;66.83;99481.19;4904155;29;20702;-78
2022/04/16 04:17:08;;;;;;;5.07;3.78;;;;;;;6.33;66.94;99479.47;4887437;29;20415;-80
2022/04/16 04:19:36;;;;;;;4.90;3.05;;;;;;;6.33;66.60;99482.06;4905903;29;20047;-78
2022/04/16 04:22:07;;;;;;;3.85;3.45;;;;;;;6.18;66.86;99462.19;4902428;29;20059;-79
2022/04/16 04:24:33;;;;;;;4.10;3.47;;;;;;;6.15;66.47;99484.56;4951653;29;20062;-78
2022/04/16 04:27:01;;;;;;;3.88;3.40;;;;;;;6.22;66.78;99490.63;4956024;29;20051;-82
2022/04/16 04:29:28;;;;;;;3.70;3.28;;;;;;;6.20;66.36;99489.75;4923184;29;20070;-79
2022/04/16 04:31:54;;;;;;;3.97;3.45;;;;;;;6.22;66.49;99498.38;4908235;29;20423;-78
2022/04/16 04:34:21;;;;;;;3.22;2.80;;;;;;;6.20;66.54;99502.66;4939999;29;20063;-79
2022/04/16 04:36:47;;;;;;;3.47;3.10;;;;;;;6.02;66.33;99486.25;4926997;29;20044;-83
2022/04/16 04:39:14;;;;;;;3.30;3.00;;;;;;;6.03;65.86;99503.47;4904057;29;20071;-80
2022/04/16 04:41:42;;;;;;;3.85;2.70;;;;;;;6.09;65.58;99515.53;4907353;29;20063;-79
2022/04/16 04:44:11;;;;;;;3.55;3.08;;;;;;;6.10;65.88;99519.84;4940054;28;20080;-78
2022/04/16 04:46:38;;;;;;;2.80;2.50;;;;;;;6.02;65.96;99523.28;4943971;29;20059;-77
2022/04/16 04:49:07;;;;;;;2.30;2.10;;;;;;;5.87;65.39;99497.31;4956439;29;20023;-83
2022/04/16 04:51:37;;;;;;;2.30;2.08;;;;;;;5.81;65.21;99505.91;4906120;29;20039;-80
2022/04/16 04:54:04;;;;;;;2.58;2.38;;;;;;;5.69;65.15;99518.75;4936308;29;20050;-79
2022/04/16 04:56:30;;;;;;;2.28;1.90;;;;;;;5.69;65.16;99527.34;4920418;29;20047;-80
2022/04/16 04:58:57;;;;;;;2.30;2.10;;;;;;;5.62;65.20;99523.00;4906349;29;20147;-78
2022/04/16 05:01:23;;;;;;;2.03;1.80;;;;;;;5.67;65.14;99541.97;4908282;29;20063;-79
2022/04/16 05:03:50;;;;;;;2.20;1.90;;;;;;;5.61;65.23;99547.09;4919734;29;20055;-80
2022/04/16 05:06:16;;;;;;;2.35;2.15;;;;;;;5.42;64.81;99521.13;4905657;29;20040;-80
2022/04/16 05:08:43;;;;;;;2.35;1.98;;;;;;;5.47;65.42;99544.41;4904715;29;20521;-77
2022/04/16 05:11:11;;;;;;;2.08;1.63;;;;;;;5.51;64.62;99556.50;4891790;29;20091;-79
2022/04/16 05:14:09;;;;;;;1.90;1.60;;;;;;;5.48;65.23;99559.03;4942588;29;20495;-81
2022/04/16 05:16:34;;;;;;;2.13;1.77;;;;;;;5.50;65.13;99574.53;4941406;29;20069;-80
2022/04/16 05:19:00;;;;;;;1.60;1.50;;;;;;;5.42;65.07;99572.75;4920063;29;20400;-80
2022/04/16 05:21:26;;;;;;;1.60;1.50;;;;;;;5.40;64.71;99576.16;4918743;29;20055;-78
2022/04/16 05:23:52;;;;;;;1.23;1.13;;;;;;;5.16;64.61;99543.28;4903765;29;20048;-83
2022/04/16 05:26:19;;;;;;;1.90;1.40;;;;;;;5.25;65.82;99553.66;4919660;29;20051;-78
2022/04/16 05:28:44;;;;;;;1.70;1.50;;;;;;;5.33;64.49;99571.78;4937283;29;20415;-77
2022/04/16 05:31:10;;;;;;;1.50;1.40;;;;;;;5.36;65.10;99579.56;4936290;29;20052;-78
2022/04/16 05:36:21;;;;;;;1.20;1.10;;;;;;;5.46;64.63;99572.75;4939344;29;20059;-80
2022/04/16 05:38:47;;;;;;;1.48;1.00;;;;;;;5.31;64.38;99552.84;4923324;29;20455;-80
2022/04/16 05:41:13;;;;;;;1.55;0.95;;;;;;;5.43;65.03;99579.63;4908979;29;20423;-80
2022/04/16 05:43:39;;;;;;;1.45;1.02;;;;;;;5.47;64.81;99580.53;4925089;29;20048;-79
2022/04/16 05:46:05;;;;;;;1.25;1.15;;;;;;;5.43;63.84;99586.53;4925647;29;20040;-79
2022/04/16 05:48:31;;;;;;;1.40;1.20;;;;;;;5.50;64.37;99580.56;4943590;29;20046;-80
2022/04/16 05:50:58;;;;;;;1.70;1.05;;;;;;;5.42;64.29;99562.41;4925814;29;20095;-79
2022/04/16 05:53:24;;;;;;;1.38;0.90;;;;;;;5.39;64.27;99567.56;4940171;29;20134;-79
2022/04/16 05:55:51;;;;;;;0.98;0.95;;;;;;;5.52;64.90;99578.84;4907798;29;20546;-79
2022/04/16 05:58:18;;;;;;;1.10;0.90;;;;;;;5.63;64.53;99581.50;4919950;29;20098;-83
2022/04/16 06:00:45;;;;;;;1.00;0.82;;;;;;;5.73;64.49;99578.16;4922960;29;20464;-79
2022/04/16 06:03:21;;;;;;;1.20;1.00;;;;;;;5.19;63.76;99489.13;4944130;29;20122;-81
2022/04/16 06:06:01;;;;;;;1.10;0.88;;;;;;;4.76;64.49;99400.22;4927876;29;20066;-80
2022/04/16 06:08:27;;;;;;;0.77;0.70;;;;;;;5.65;63.85;99554.00;4914929;29;20130;-77
2022/04/16 06:11:06;;;;;;;1.25;0.80;;;;;;;5.58;63.32;99547.06;4946220;29;20515;-80
2022/04/16 06:13:32;;;;;;;1.02;0.90;;;;;;;5.83;63.74;99578.22;4913819;29;20035;-80
2022/04/16 06:15:59;;;;;;;0.80;0.80;;;;;;;5.42;63.55;99525.44;4926795;29;20040;-80
2022/04/16 06:18:28;;;;;;;1.42;1.00;;;;;;;5.60;63.59;99554.81;4942676;29;20036;-81
2022/04/16 06:20:57;;;;;;;1.08;0.82;;;;;;;5.56;63.70;99523.81;4923311;29;20054;-79
2022/04/16 06:23:23;;;;;;;1.13;0.80;;;;;;;5.78;63.12;99554.09;4951627;29;20115;-82
2022/04/16 06:25:52;;;;;;;1.55;0.90;;;;;;;5.94;62.98;99581.75;4950163;29;20059;-81
2022/04/16 06:28:18;;;;;;;1.63;1.00;;;;;;;5.91;62.67;99561.06;4926914;29;20043;-79
2022/04/16 06:30:47;;;;;;;0.95;0.88;;;;;;;5.92;63.20;99567.09;4938955;29;20400;-83
2022/04/16 06:33:37;;;;;;;1.63;0.80;;;;;;;6.08;62.60;99601.66;4907643;29;20191;-82
2022/04/16 06:36:09;;;;;;;1.38;1.08;;;;;;;5.81;62.42;99564.44;4920528;29;20530;-80
2022/04/16 06:38:42;;;;;;;1.90;1.08;;;;;;;5.36;62.92;99484.97;4888994;29;20051;-84
2022/04/16 06:41:08;;;;;;;1.00;0.73;;;;;;;4.95;62.16;99419.31;4902836;29;20045;-83
2022/04/16 06:43:35;;;;;;;2.17;1.00;;;;;;;5.56;62.13;99538.44;4935423;29;20055;-82
2022/04/16 06:46:21;;;;;;;2.80;1.02;;;;;;;5.97;61.95;99610.19;4902934;29;20451;-84
2022/04/16 06:48:53;;;;;;;1.60;1.00;;;;;;;5.01;62.81;99444.28;4887397;29;20051;-78
2022/04/16 06:51:34;;;;;;;1.40;0.85;;;;;;;5.08;62.05;99446.06;4903561;29;20043;-78
2022/04/16 06:54:09;;;;;;;1.27;0.80;;;;;;;5.35;61.98;99497.84;4936376;29;20124;-79
2022/04/16 06:56:38;;;;;;;1.10;0.80;;;;;;;5.77;62.06;99554.94;4906552;29;20499;-79
2022/04/16 06:59:04;;;;;;;1.00;0.70;;;;;;;5.84;62.02;99598.88;4923158;29;20411;-81
2022/04/16 07:01:31;;;;;;;2.00;1.30;;;;;;;5.93;62.51;99611.00;4911592;29;20044;-78
2022/04/16 07:04:01;;;;;;;1.65;1.10;;;;;;;5.96;62.11;99599.84;4926621;29;20040;-79
2022/04/16 07:06:27;;;;;;;2.58;1.00;;;;;;;5.84;62.19;99575.66;4927080;29;20076;-77
2022/04/16 07:08:53;;;;;;;1.02;0.93;;;;;;;5.82;61.95;99561.00;4913676;29;20138;-80
2022/04/16 07:11:24;;;;;;;1.05;0.90;;;;;;;5.50;61.65;99508.31;4900199;29;20423;-79
2022/04/16 07:13:50;;;;;;;1.77;1.27;;;;;;;5.92;62.16;99570.53;4911347;29;20411;-81
2022/04/16 07:16:23;;;;;;;1.35;1.00;;;;;;;5.95;61.20;99574.88;4912298;29;20538;-79
2022/04/16 07:18:49;;;;;;;1.92;1.45;;;;;;;5.06;60.96;99439.16;4910859;29;20055;-77
2022/04/16 07:21:16;;;;;;;1.15;1.00;;;;;;;6.13;62.29;99623.22;4924851;29;20048;-83
2022/04/16 07:23:44;;;;;;;1.30;0.90;;;;;;;6.18;61.54;99624.13;4931325;29;20147;-80
2022/04/16 07:26:10;;;;;;;1.98;1.10;;;;;;;6.28;62.15;99623.34;4932465;29;20530;-78
2022/04/16 07:28:37;;;;;;;1.48;1.00;;;;;;;6.31;61.59;99627.63;4912943;29;20526;-80
2022/04/16 07:31:03;;;;;;;2.55;1.00;;;;;;;5.96;61.56;99567.13;4908447;29;20070;-79
2022/04/16 07:33:35;;;;;;;;;;;;;;;6.37;61.74;99630.28;4926963;29;20100;-80
2022/04/16 07:36:02;;;;;;;2.05;1.10;;;;;;;6.22;60.96;99601.72;4942111;29;19919;-77
2022/04/16 07:38:28;;;;;;;1.65;0.95;;;;;;;6.39;60.73;99612.16;4907534;29;20050;-81
2022/04/16 07:40:54;;;;;;;1.67;0.90;;;;;;;6.51;61.13;99642.38;4940749;29;20159;-80
2022/04/16 07:43:21;;;;;;;1.00;0.90;;;;;;;6.45;60.77;99632.88;4927337;29;20506;-83
2022/04/16 07:45:47;;;;;;;1.35;1.13;;;;;;;6.39;59.76;99641.47;4909548;29;20046;-80
2022/04/16 07:48:13;;;;;;;1.92;1.30;;;;;;;6.18;61.35;99637.88;4909978;29;20055;-82
2022/04/16 07:50:43;;;;;;;1.48;1.17;;;;;;;5.94;60.57;99615.31;4940441;29;20051;-80
2022/04/16 07:53:09;;;;;;;1.27;1.10;;;;;;;6.16;61.62;99643.91;4912782;29;20040;-80
2022/04/16 07:55:36;;;;;;;1.15;0.90;;;;;;;6.25;60.80;99664.66;4928757;29;20090;-82
2022/04/16 07:58:03;;;;;;;1.45;1.00;;;;;;;6.44;61.07;99678.53;4935367;28;20028;-81
2022/04/16 08:00:30;;;;;;;1.23;1.13;;;;;;;6.09;61.17;99618.88;4942145;29;20127;-81
2022/04/16 08:03:04;;;;;;;1.45;0.90;;;;;;;6.18;60.57;99670.63;4923359;29;20115;-79
2022/04/16 08:05:31;;;;;;;1.83;1.10;;;;;;;5.33;60.31;99553.72;4936632;29;20043;-81
2022/04/16 08:08:04;;;;;;;1.75;1.10;;;;;;;5.92;60.70;99644.59;4916621;29;20047;-79
2022/04/16 08:10:45;;;;;;;1.20;1.00;;;;;;;5.90;60.37;99657.47;4917786;29;20066;-81
2022/04/16 08:13:20;;;;;;;0.95;0.90;;;;;;;5.45;60.79;99566.75;4918690;29;20042;-81
2022/04/16 08:15:47;;;;;;;1.50;1.00;;;;;;;5.95;60.78;99671.28;4914827;29;20099;-80
2022/04/16 08:18:14;;;;;;;1.10;0.90;;;;;;;6.05;60.86;99686.91;4930210;29;20098;-75
2022/04/16 08:20:41;;;;;;;1.92;1.20;;;;;;;6.08;61.77;99702.41;4927822;29;20055;-79
2022/04/16 08:23:07;;;;;;;1.88;1.23;;;;;;;6.07;60.88;99693.81;4917421;29;20551;-78
2022/04/16 08:28:01;;;;;;;1.58;1.40;;;;;;;6.03;60.72;99695.50;4930301;29;20070;-79
2022/04/16 08:30:28;;;;;;;1.45;1.35;;;;;;;5.72;59.96;99669.38;4933190;29;20067;-80
2022/04/16 08:32:56;;;;;;;1.85;1.42;;;;;;;5.73;60.83;99671.09;4915577;29;20066;-79
2022/04/16 08:35:23;;;;;;;1.45;1.30;;;;;;;5.88;59.99;99706.53;4929468;29;20522;-79
2022/04/16 08:37:49;;;;;;;1.63;1.20;;;;;;;5.88;60.71;99708.22;4929202;29;20436;-79
2022/04/16 08:40:17;;;;;;;1.30;1.15;;;;;;;5.66;60.82;99668.47;4929036;29;20479;-79
2022/04/16 08:42:45;;;;;;;1.20;1.10;;;;;;;5.82;61.02;99716.81;4913284;29;20075;-79
2022/04/16 08:45:12;;;;;;;2.15;1.33;;;;;;;5.79;61.03;99708.16;4912642;29;20071;-81
2022/04/16 08:47:49;;;;;;;1.75;1.10;;;;;;;5.68;61.05;99688.25;4929035;29;20067;-77
2022/04/16 08:50:15;;;;;;;1.00;0.90;;;;;;;5.77;60.44;99710.72;4945551;29;20423;-77
2022/04/16 08:52:41;;;;;;;1.60;1.10;;;;;;;5.69;61.37;99720.97;4938208;29;20134;-81
2022/04/16 08:55:12;;;;;;;1.45;1.20;;;;;;;5.67;61.66;99717.50;4919892;29;20098;-81
2022/04/16 08:57:39;;;;;;;1.30;1.10;;;;;;;5.72;61.38;99722.75;4919943;29;20503;-79
2022/04/16 09:00:07;;;;;;;2.38;1.35;;;;;;;5.58;60.59;99717.44;4922687;29;20052;-78
2022/04/16 09:02:34;;;;;;;1.42;1.33;;;;;;;5.15;60.78;99658.50;4939071;29;20043;-79
2022/04/16 09:05:10;;;;;;;1.63;1.20;;;;;;;5.32;62.30;99671.59;4937428;29;20039;-80
2022/04/16 09:07:46;;;;;;;1.70;1.30;;;;;;;5.46;60.87;99702.69;4923490;29;20674;-78
2022/04/16 09:10:12;;;;;;;1.80;1.50;;;;;;;5.77;61.78;99728.78;4926551;29;20043;-79
2022/04/16 09:12:39;;;;;;;1.73;1.50;;;;;;;5.67;61.94;99703.75;4922238;29;20039;-79
2022/04/16 09:15:08;;;;;;;1.85;1.50;;;;;;;5.56;61.20;99695.91;4905347;29;20059;-77
2022/04/16 09:17:34;;;;;;;1.40;1.30;;;;;;;4.85;61.28;99584.22;4922182;29;20129;-81
2022/04/16 09:20:00;;;;;;;1.60;1.40;;;;;;;5.60;60.88;99751.88;4921719;29;20570;-78
2022/04/16 09:22:35;;;;;;;1.70;1.55;;;;;;;5.58;60.91;99738.09;4889620;29;20052;-80
2022/04/16 09:25:04;;;;;;;1.60;1.42;;;;;;;5.60;61.79;99761.34;4910802;29;20043;-81
2022/04/16 09:27:41;;;;;;;1.98;1.63;;;;;;;5.25;62.08;99687.84;4911213;29;20132;-78
2022/04/16 09:30:08;;;;;;;2.30;1.80;;;;;;;5.17;61.93;99666.25;4909653;29;20043;-78
2022/04/16 09:32:43;;;;;;;2.00;1.65;;;;;;;5.66;61.48;99736.44;4924495;29;20055;-79
2022/04/16 09:35:35;;;;;;;2.40;1.70;;;;;;;5.64;62.25;99732.13;4938149;29;20051;-80
2022/04/16 09:38:10;;;;;;;1.98;1.40;;;;;;;5.55;61.62;99722.56;4922003;29;20047;-77
2022/04/16 09:40:37;;;;;;;1.48;1.38;;;;;;;5.57;62.54;99742.38;4911390;29;20050;-81
2022/04/16 09:43:08;;;;;;;2.10;1.50;;;;;;;5.71;61.96;99762.31;4923843;29;20047;-80
2022/04/16 09:45:41;;;;;;;1.73;1.40;;;;;;;5.09;61.45;99690.25;4923664;29;20051;-79
2022/04/16 09:48:12;;;;;;;1.83;1.40;;;;;;;5.23;62.17;99711.06;4940164;29;20122;-82
2022/04/16 09:50:45;;;;;;;1.48;1.23;;;;;;;5.49;62.09;99762.09;4908147;29;20047;-80
2022/04/16 09:53:17;;;;;;;2.20;1.30;;;;;;;5.46;61.58;99776.66;4908767;29;20056;-80
2022/04/16 09:55:55;;;;;;;1.90;1.33;;;;;;;4.97;62.05;99703.88;4910309;29;20043;-81
2022/04/16 09:58:38;;;;;;;1.65;1.20;;;;;;;5.58;62.55;99775.09;4896638;29;20149;-82
2022/04/16 10:01:10;;;;;;;2.38;1.30;;;;;;;5.75;62.14;99787.31;4924458;29;20127;-78
2022/04/16 10:03:44;;;;;;;1.77;1.30;;;;;;;5.51;61.67;99731.13;4921775;29;20044;-80
2022/04/16 10:06:13;;;;;;;1.70;1.30;;;;;;;5.75;61.35;99776.13;4927869;29;20043;-80
2022/04/16 10:08:49;;;;;;;2.03;1.25;;;;;;;5.02;61.76;99691.00;4924705;29;20036;-80
2022/04/16 10:14:32;;;;;;;2.40;1.58;;;;;;;5.20;61.85;99721.34;4905228;29;20193;-80
2022/04/16 10:17:05;;;;;;;2.67;1.42;;;;;;;4.89;61.88;99660.78;4893051;29;20063;-81
2022/04/16 10:19:48;;;;;;;1.40;1.30;;;;;;;5.31;62.01;99747.25;4905138;29;20050;-81
2022/04/16 10:22:24;;;;;;;1.83;1.40;;;;;;;5.39;61.63;99737.91;4921501;29;20066;-80
2022/04/16 10:24:57;;;;;;;2.05;1.52;;;;;;;5.79;61.92;99796.81;4937362;29;20063;-80
2022/04/16 10:27:24;;;;;;;1.30;1.20;;;;;;;5.73;60.94;99791.63;4924051;29;20130;-80
2022/04/16 10:29:51;;;;;;;1.30;1.17;;;;;;;5.82;61.49;99808.91;4921398;29;20080;-80
2022/04/16 10:32:19;;;;;;;2.03;1.50;;;;;;;5.68;60.89;99793.28;4913212;29;20568;-82
2022/04/16 10:34:46;;;;;;;1.60;1.40;;;;;;;5.83;60.79;99814.09;4906458;29;20039;-83
2022/04/16 10:37:23;;;;;;;2.80;1.48;;;;;;;5.83;59.94;99814.09;4922321;29;20114;-81
2022/04/16 10:39:54;;;;;;;1.73;1.40;;;;;;;5.84;60.64;99820.13;4922658;29;20067;-83
2022/04/16 10:42:32;;;;;;;2.47;1.20;;;;;;;5.25;60.91;99731.69;4921227;29;20051;-84
2022/04/16 10:45:26;;;;;;;1.65;1.27;;;;;;;5.72;60.51;99824.31;4921422;29;20047;-82
2022/04/16 10:47:54;;;;;;;1.88;1.35;;;;;;;4.97;59.94;99729.66;4884959;29;20051;-84
2022/04/16 10:50:23;;;;;;;1.48;1.25;;;;;;;4.36;60.51;99621.44;4939207;29;20049;-82
2022/04/16 10:53:06;;;;;;;2.53;1.55;;;;;;;5.21;61.47;99769.50;4923888;29;20044;-80
2022/04/16 10:55:36;;;;;;;1.55;1.30;;;;;;;5.63;60.78;99828.50;4922872;29;20068;-82
2022/04/16 10:58:08;;;;;;;1.50;1.08;;;;;;;5.23;60.38;99761.78;4924386;29;20047;-81
2022/04/16 11:00:46;;;;;;;1.30;1.20;;;;;;;5.64;60.82;99805.25;4924263;29;20107;-80
2022/04/16 11:03:30;;;;;;;1.73;1.33;;;;;;;5.22;60.38;99762.63;4923498;29;20039;-80
2022/04/16 11:06:09;;;;;;;2.00;1.40;;;;;;;5.06;59.84;99757.28;4905370;29;20039;-79
2022/04/16 11:08:37;;;;;;;2.75;1.75;;;;;;;5.54;59.79;99855.06;4925154;29;20134;-78
2022/04/16 11:11:07;;;;;;;1.55;1.45;;;;;;;5.15;60.68;99768.56;4932082;29;20229;-78
2022/04/16 11:13:38;;;;;;;1.80;1.45;;;;;;;5.68;60.22;99839.75;4938769;29;20048;-82
2022/04/16 11:16:12;;;;;;;2.83;1.30;;;;;;;5.26;60.03;99788.50;4940018;29;20111;-79
2022/04/16 11:18:43;;;;;;;1.42;1.33;;;;;;;5.13;60.03;99771.09;4918846;29;20059;-81
2022/04/16 11:21:13;;;;;;;1.77;1.60;;;;;;;5.28;59.69;99797.13;4929410;29;20053;-81
2022/04/16 11:23:51;;;;;;;2.45;1.63;;;;;;;5.55;60.57;99831.00;4923028;29;20347;-79
2022/04/16 11:34:54;;;;;;;2.47;2.00;;;;;;;5.37;58.75;99795.50;4922905;29;20138;-80
2022/04/16 11:37:26;;;;;;;2.67;1.60;;;;;;;4.88;59.62;99736.41;4924095;29;20047;-82
2022/04/16 11:40:05;;;;;;;2.47;1.95;;;;;;;5.05;58.89;99767.59;4907673;29;20499;-79
2022/04/16 11:42:55;;;;;;;2.70;1.50;;;;;;;4.74;59.24;99729.38;4917335;29;20064;-85
2022/04/16 11:45:25;;;;;;;2.85;1.70;;;;;;;5.04;59.22;99796.81;4922571;29;20096;-85
2022/04/16 11:48:01;;;;;;;1.92;1.60;;;;;;;5.59;59.96;99902.47;4892704;29;20035;-84
2022/04/16 11:50:43;;;;;;;2.35;1.58;;;;;;;5.08;59.58;99820.06;4911488;29;20060;-84
2022/04/16 11:53:13;;;;;;;2.10;1.55;;;;;;;4.56;58.85;99726.50;4925628;29;20411;-81
2022/04/16 11:55:54;;;;;;;2.53;1.58;;;;;;;4.94;59.17;99795.81;4891563;29;20071;-80
2022/04/16 11:58:33;;;;;;;1.52;1.40;;;;;;;4.74;59.15;99762.88;4907070;29;20044;-81
2022/04/16 12:01:04;;;;;;;2.63;1.63;;;;;;;4.77;58.92;99754.31;4907389;29;20118;-81
2022/04/16 12:03:46;;;;;;;2.25;1.80;;;;;;;5.27;59.40;99877.06;4922140;29;20047;-81
2022/04/16 12:06:19;;;;;;;2.25;1.70;;;;;;;4.35;59.41;99713.34;4922808;29;20050;-82
2022/04/16 12:09:27;;;;;;;2.20;1.40;;;;;;;5.64;59.68;99923.19;4927439;29;20126;-81
2022/04/16 12:11:56;;;;;;;1.77;1.33;;;;;;;5.31;58.98;99831.53;4883567;29;20439;-81
2022/04/16 12:14:45;;;;;;;1.30;1.13;;;;;;;5.71;59.07;99920.69;4923616;29;20106;-79
2022/04/16 12:17:29;;;;;;;1.48;1.10;;;;;;;4.55;58.94;99746.25;4922770;29;20044;-82
2022/04/16 12:20:11;;;;;;;2.53;1.40;;;;;;;5.63;58.78;99927.44;4911914;29;20079;-82
2022/04/16 12:23:02;;;;;;;1.92;1.42;;;;;;;4.57;58.76;99754.88;4907075;29;20071;-82
2022/04/16 12:25:32;;;;;;;2.67;1.27;;;;;;;5.41;58.75;99893.59;4939809;29;20040;-80